createdAt,value
2022-11-25T03:05:59.113Z,98428.00
2022-11-25T03:08:27.525Z,98389.00
2022-11-25T03:10:55.662Z,98392.00
2022-11-25T03:13:23.962Z,98421.00
2022-11-25T03:15:54.092Z,98330.00
2022-11-25T03:18:22.287Z,98481.00
2022-11-25T03:20:55.339Z,98432.00
2022-11-25T03:23:24.918Z,98349.00
2022-11-25T03:25:53.082Z,98438.00
2022-11-25T03:28:21.259Z,98446.00
2022-11-25T03:30:49.438Z,98429.00
2022-11-25T03:33:17.518Z,98360.00
2022-11-25T03:35:45.701Z,98345.00
2022-11-25T03:38:13.799Z,98448.00
2022-11-25T03:40:43.561Z,98403.00
2022-11-25T03:43:12.652Z,98430.00
2022-11-25T03:45:40.973Z,98404.00
2022-11-25T03:48:09.242Z,98452.00
2022-11-25T03:50:39.803Z,98437.00
2022-11-25T03:53:08.008Z,98361.00
2022-11-25T03:55:36.180Z,98464.00
2022-11-25T03:58:07.753Z,98378.00
2022-11-25T04:00:36.001Z,98424.00
2022-11-25T04:03:11.393Z,98359.00
2022-11-25T04:05:39.566Z,98341.00
2022-11-25T04:08:07.697Z,98349.00
2022-11-25T04:10:35.861Z,98445.00
2022-11-25T04:13:04.292Z,98418.00
2022-11-25T04:15:32.471Z,98325.00
2022-11-25T04:18:00.625Z,98344.00
2022-11-25T04:20:28.831Z,98422.00
2022-11-25T04:22:56.977Z,98430.00
2022-11-25T04:25:26.441Z,98342.00
2022-11-25T04:27:54.540Z,98434.00
2022-11-25T04:30:24.055Z,98417.00
2022-11-25T04:32:52.143Z,98421.00
2022-11-25T04:35:20.385Z,98368.00
2022-11-25T04:37:51.649Z,98426.00
2022-11-25T04:40:21.404Z,98348.00
2022-11-25T04:42:57.908Z,98331.00
2022-11-25T04:45:45.638Z,98403.00
2022-11-25T04:48:19.888Z,98324.00
2022-11-25T04:50:48.270Z,98361.00
2022-11-25T04:53:16.402Z,98366.00
2022-11-25T04:55:45.284Z,98445.00
2022-11-25T04:58:13.575Z,98357.00
2022-11-25T05:00:42.451Z,98446.00
2022-11-25T05:03:17.120Z,98404.00
2022-11-25T05:05:45.333Z,98363.00
2022-11-25T05:08:13.368Z,98348.00
2022-11-25T05:10:41.525Z,98423.00
2022-11-25T05:13:09.735Z,98395.00
2022-11-25T05:15:37.833Z,98433.00
2022-11-25T05:18:07.417Z,98436.00
2022-11-25T05:20:35.469Z,98430.00
2022-11-25T05:23:03.634Z,98437.00
2022-11-25T05:25:31.788Z,98457.00
2022-11-25T05:27:59.857Z,98421.00
2022-11-25T05:30:28.033Z,98409.00
2022-11-25T05:32:56.266Z,98466.00
2022-11-25T05:35:26.879Z,98375.00
2022-11-25T05:37:55.073Z,98323.00
2022-11-25T05:40:23.252Z,98426.00
2022-11-25T05:42:51.414Z,98353.00
2022-11-25T05:45:19.565Z,98424.00
2022-11-25T05:47:47.697Z,98434.00
2022-11-25T05:50:16.011Z,98349.00
2022-11-25T05:52:45.475Z,98441.00
2022-11-25T05:55:15.904Z,98421.00
2022-11-25T05:57:44.039Z,98381.00
2022-11-25T06:00:13.748Z,98425.00
2022-11-25T06:02:42.053Z,98447.00
2022-11-25T06:05:18.232Z,98445.00
2022-11-25T06:07:47.869Z,98370.00
2022-11-25T06:10:16.169Z,98337.00
2022-11-25T06:12:44.371Z,98386.00
2022-11-25T06:15:13.015Z,98432.00
2022-11-25T06:17:41.476Z,98423.00
2022-11-25T06:20:10.620Z,98439.00
2022-11-25T06:22:40.948Z,98428.00
2022-11-25T06:25:10.929Z,98426.00
2022-11-25T06:28:10.636Z,98443.00
2022-11-25T06:30:29.243Z,98436.00
2022-11-25T06:32:58.744Z,98405.00
2022-11-25T06:35:27.255Z,98476.00
2022-11-25T06:37:55.796Z,98385.00
2022-11-25T06:40:25.381Z,98473.00
2022-11-25T06:42:53.700Z,98419.00
2022-11-25T06:45:21.869Z,98400.00
2022-11-25T06:47:50.223Z,98461.00
2022-11-25T06:50:18.737Z,98400.00
2022-11-25T06:52:47.006Z,98450.00
2022-11-25T06:55:20.482Z,98477.00
2022-11-25T06:57:59.044Z,98407.00
2022-11-25T07:00:38.903Z,98474.00
2022-11-25T07:03:07.418Z,98457.00
2022-11-25T07:05:35.731Z,98431.00
2022-11-25T07:08:04.095Z,98403.00
2022-11-25T07:10:32.439Z,98429.00
2022-11-25T07:13:02.032Z,98454.00
2022-11-25T07:15:30.362Z,98490.00
2022-11-25T07:18:02.767Z,98444.00
2022-11-25T07:20:31.073Z,98464.00
2022-11-25T07:23:01.467Z,98388.00
2022-11-25T07:25:38.411Z,98510.00
2022-11-25T07:28:09.294Z,98426.00
2022-11-25T07:33:29.749Z,98492.00
2022-11-25T07:35:58.321Z,98475.00
2022-11-25T07:38:29.347Z,98435.00
2022-11-25T21:09:28.001Z,99130.00
2022-11-25T21:11:56.734Z,99140.00
2022-11-25T21:14:25.080Z,99138.00
2022-11-25T21:16:53.648Z,99144.00
2022-11-25T21:19:21.777Z,99147.00
2022-11-25T21:21:56.056Z,99148.00
2022-11-25T21:24:29.483Z,99162.00
2022-11-25T21:26:57.784Z,99152.00
2022-11-25T21:29:26.085Z,99161.00
2022-11-25T21:31:54.394Z,99157.00
2022-11-25T21:34:22.583Z,99163.00
2022-11-25T21:36:52.799Z,99167.00
2022-11-25T21:39:29.255Z,99166.00
2022-11-25T21:41:57.600Z,99175.00
2022-11-25T21:44:28.881Z,99177.00
2022-11-25T21:46:57.197Z,99179.00
2022-11-25T21:49:27.820Z,99167.00
2022-11-25T21:51:55.899Z,99172.00
2022-11-25T21:54:26.636Z,99183.00
2022-11-25T21:57:01.327Z,99189.00
2022-11-25T21:59:29.457Z,99164.00
2022-11-25T22:01:57.655Z,99185.00
2022-11-25T22:04:25.884Z,99183.00
2022-11-25T22:06:55.200Z,99185.00
2022-11-25T22:09:29.000Z,99191.00
2022-11-25T22:11:58.543Z,99189.00
2022-11-25T22:14:29.758Z,99200.00
2022-11-25T22:16:57.916Z,99204.00
2022-11-25T22:19:28.646Z,99201.00
2022-11-25T22:21:56.918Z,99204.00
2022-11-25T22:24:25.051Z,99208.00
2022-11-25T22:26:57.648Z,99209.00
2022-11-25T22:29:30.846Z,99206.00
2022-11-25T22:31:59.268Z,99210.00
2022-11-25T22:34:27.481Z,99214.00
2022-11-25T22:36:55.582Z,99225.00
2022-11-25T22:39:27.378Z,99190.00
2022-11-25T22:41:56.476Z,99216.00
2022-11-25T22:44:28.339Z,99230.00
2022-11-25T22:46:57.772Z,99229.00
2022-11-25T22:49:30.175Z,99233.00
2022-11-25T22:51:58.502Z,99218.00
2022-11-25T22:54:26.659Z,99221.00
2022-11-25T22:56:54.977Z,99234.00
2022-11-25T22:59:23.174Z,99238.00
2022-11-25T23:01:51.436Z,99238.00
2022-11-25T23:04:24.448Z,99246.00
2022-11-25T23:06:52.783Z,99243.00
2022-11-25T23:09:21.033Z,99241.00
2022-11-25T23:11:49.277Z,99260.00
2022-11-25T23:14:17.501Z,99243.00
2022-11-25T23:16:45.789Z,99245.00
2022-11-25T23:19:17.435Z,99236.00
2022-11-25T23:21:47.279Z,99250.00
2022-11-25T23:24:16.565Z,99244.00
2022-11-25T23:26:45.000Z,99252.00
2022-11-25T23:29:13.181Z,99245.00
2022-11-25T23:31:47.390Z,99249.00
2022-11-25T23:34:15.519Z,99253.00
2022-11-25T23:36:48.561Z,99253.00
2022-11-25T23:39:21.266Z,99234.00
2022-11-25T23:41:49.714Z,99246.00
2022-11-25T23:44:19.523Z,99238.00
2022-11-25T23:46:49.369Z,99246.00
2022-11-25T23:49:20.094Z,99248.00
2022-11-25T23:51:50.761Z,99257.00
2022-11-25T23:54:21.969Z,99254.00
2022-11-25T23:56:52.454Z,99264.00
2022-11-25T23:59:26.001Z,99262.00
